Time;durP1;ratioP1;P1;durP2;ratioP2;P2;SDS_P1;SDS_P2;PMS_P1;PMS_P2;Temp;Humidity;BMP_temperature;BMP_pressure;BME280_temperature;BME280_humidity;BME280_pressure;Samples;Min_cycle;Max_cycle;Signal;HPM_P1;HPM_P2
2022/06/06 00:00:19;;;;;;;10.80;7.57;;;;;;;21.59;85.00;94610.28;5112305;28;20230;-84
2022/06/06 00:02:52;;;;;;;10.77;7.57;;;;;;;21.55;85.24;94604.78;5110840;28;20224;-84
2022/06/06 00:05:23;;;;;;;12.00;7.88;;;;;;;21.58;85.49;94619.28;5106957;28;20582;-86
2022/06/06 00:07:54;;;;;;;12.75;7.15;;;;;;;21.53;85.06;94608.78;5100871;28;20196;-85
2022/06/06 00:10:29;;;;;;;15.35;7.88;;;;;;;21.55;83.95;94611.91;5094939;28;20197;-84
2022/06/06 00:13:00;;;;;;;19.25;8.27;;;;;;;21.57;84.08;94621.13;5108186;28;20198;-86
2022/06/06 00:15:32;;;;;;;10.40;7.68;;;;;;;21.48;85.39;94620.22;5104287;28;20211;-87
2022/06/06 00:18:09;;;;;;;11.27;8.15;;;;;;;21.37;85.97;94616.13;5111303;28;20255;-87
2022/06/06 00:20:40;;;;;;;11.25;7.78;;;;;;;21.40;86.87;94612.91;5110553;28;20203;-87
2022/06/06 00:23:10;;;;;;;11.55;7.95;;;;;;;21.44;85.89;94598.81;5104443;28;20284;-85
2022/06/06 00:25:47;;;;;;;13.10;7.60;;;;;;;21.44;85.99;94587.47;5111484;28;20676;-85
2022/06/06 00:28:26;;;;;;;13.02;8.20;;;;;;;21.43;85.98;94581.41;5104733;28;20291;-84
2022/06/06 00:34:48;;;;;;;13.65;7.40;;;;;;;21.41;86.08;94569.53;5095376;28;20214;-84
2022/06/06 00:36:44;;;;;;;10.07;7.13;;;;;;;21.54;85.54;94554.78;5106341;28;20221;-86
2022/06/06 00:39:20;;;;;;;11.57;7.57;;;;;;;21.46;85.11;94543.00;5112439;28;20203;-86
2022/06/06 00:41:54;;;;;;;13.70;7.47;;;;;;;21.55;84.94;94556.38;5107919;28;20279;-84
2022/06/06 00:44:31;;;;;;;13.82;7.38;;;;;;;21.52;84.24;94538.44;5113958;28;20216;-83
2022/06/06 00:47:07;;;;;;;14.43;7.13;;;;;;;21.49;84.16;94534.50;5111849;28;20589;-84
2022/06/06 00:49:42;;;;;;;10.75;7.00;;;;;;;21.55;83.88;94546.56;5107872;28;20211;-84
2022/06/06 00:52:20;;;;;;;14.13;8.02;;;;;;;21.41;84.42;94535.16;5108182;28;20662;-83
2022/06/06 00:54:52;;;;;;;9.57;7.30;;;;;;;21.36;84.87;94519.34;5109471;28;20660;-84
2022/06/06 00:57:31;;;;;;;11.40;7.47;;;;;;;21.53;84.41;94524.13;5107430;28;20200;-87
2022/06/06 01:00:04;;;;;;;13.43;7.20;;;;;;;21.52;84.37;94535.78;5108091;28;20216;-86
2022/06/06 01:02:34;;;;;;;13.48;7.32;;;;;;;21.52;84.71;94525.19;5105810;28;20787;-83
2022/06/06 01:05:08;;;;;;;15.07;7.07;;;;;;;21.56;85.19;94516.38;5107674;28;20284;-82
2022/06/06 01:07:43;;;;;;;10.88;7.40;;;;;;;21.58;84.29;94513.47;5111033;28;20200;-83
2022/06/06 01:10:15;;;;;;;12.95;7.30;;;;;;;21.60;84.30;94504.16;5106418;28;20279;-84
2022/06/06 01:12:52;;;;;;;14.40;7.75;;;;;;;21.59;86.27;94481.41;5109883;28;20908;-82
2022/06/06 01:15:30;;;;;;;12.57;7.88;;;;;;;21.65;89.12;94467.03;5110721;28;20730;-84
2022/06/06 01:18:10;;;;;;;12.38;7.93;;;;;;;21.74;90.91;94478.53;5107089;28;20249;-84
2022/06/06 01:21:19;;;;;;;10.77;7.80;;;;;;;21.74;94.26;94491.75;5102841;28;20249;-86
2022/06/06 01:24:07;;;;;;;12.30;7.78;;;;;;;21.74;95.53;94470.59;5111012;28;20220;-84
2022/06/06 01:27:10;;;;;;;9.82;7.05;;;;;;;21.44;93.05;94471.88;5109520;28;20679;-84
2022/06/06 01:29:57;;;;;;;10.95;7.35;;;;;;;21.41;95.92;94493.63;5105668;28;20210;-85
2022/06/06 01:32:33;;;;;;;22.52;8.30;;;;;;;21.30;98.27;94491.41;5110107;28;20223;-84
2022/06/06 01:35:06;;;;;;;13.77;8.52;;;;;;;21.26;97.82;94546.75;5100832;28;20216;-84
2022/06/06 01:37:38;;;;;;;14.00;8.90;;;;;;;20.46;100.00;94637.56;5107793;28;20219;-85
2022/06/06 01:40:16;;;;;;;12.10;7.20;;;;;;;19.91;100.00;94639.59;5099997;28;20292;-84
2022/06/06 01:42:55;;;;;;;15.38;7.55;;;;;;;19.82;100.00;94651.78;5103894;28;20224;-86
2022/06/06 01:45:38;;;;;;;13.98;8.27;;;;;;;19.80;100.00;94667.88;5106173;28;20223;-84
2022/06/06 01:48:15;;;;;;;21.83;8.88;;;;;;;19.50;100.00;94635.66;5108594;28;20723;-83
2022/06/06 01:50:45;;;;;;;24.70;11.07;;;;;;;19.24;100.00;94609.44;5097093;28;20703;-84
2022/06/06 01:53:18;;;;;;;22.77;9.60;;;;;;;18.79;100.00;94566.72;5103380;28;20207;-84
2022/06/06 01:55:51;;;;;;;19.38;9.05;;;;;;;18.80;100.00;94592.78;5107435;28;20260;-84
2022/06/06 01:58:34;;;;;;;18.75;9.63;;;;;;;18.84;100.00;94617.53;5104973;28;20207;-84
2022/06/06 02:01:03;;;;;;;17.27;8.80;;;;;;;18.85;100.00;94607.75;5108017;28;20623;-84
2022/06/06 02:03:33;;;;;;;15.35;8.80;;;;;;;18.85;100.00;94600.66;5103718;28;20216;-84
2022/06/06 02:06:09;;;;;;;13.30;8.15;;;;;;;18.84;100.00;94585.13;5102605;28;20295;-84
2022/06/06 02:08:38;;;;;;;15.35;7.65;;;;;;;18.94;100.00;94600.88;5092248;28;20232;-84
2022/06/06 02:11:06;;;;;;;13.32;7.25;;;;;;;18.90;100.00;94613.81;5106433;28;20200;-83
2022/06/06 02:13:38;;;;;;;16.48;6.68;;;;;;;18.96;100.00;94627.75;5109271;28;20282;-83
2022/06/06 02:16:13;;;;;;;13.25;6.50;;;;;;;18.97;100.00;94632.75;5103271;28;20228;-83
2022/06/06 02:18:47;;;;;;;25.45;6.22;;;;;;;19.02;100.00;94655.63;5100415;28;20215;-83
2022/06/06 02:21:19;;;;;;;16.58;6.55;;;;;;;19.06;100.00;94668.00;5107212;28;20281;-82
2022/06/06 02:23:50;;;;;;;15.10;6.55;;;;;;;19.13;100.00;94670.38;5102698;28;20639;-83
2022/06/06 02:26:26;;;;;;;21.75;6.75;;;;;;;19.17;100.00;94685.34;5109190;28;20204;-83
2022/06/06 02:29:00;;;;;;;17.60;6.28;;;;;;;19.18;100.00;94701.97;5094107;28;20558;-86
2022/06/06 02:31:37;;;;;;;15.18;7.10;;;;;;;19.13;100.00;94700.13;5105361;28;20346;-87
2022/06/06 02:34:12;;;;;;;19.83;7.22;;;;;;;19.13;100.00;94699.34;5103794;28;20192;-85
2022/06/06 02:36:47;;;;;;;16.52;7.35;;;;;;;19.27;100.00;94693.22;5099059;28;20666;-85
2022/06/06 02:39:22;;;;;;;21.55;8.23;;;;;;;19.33;100.00;94677.38;5108891;28;20356;-86
2022/06/06 02:41:50;;;;;;;13.80;8.02;;;;;;;19.34;100.00;94644.66;5095215;28;20200;-85
2022/06/06 02:44:22;;;;;;;16.20;7.95;;;;;;;19.42;100.00;94637.03;5099196;28;20303;-84
2022/06/06 02:46:54;;;;;;;13.60;8.60;;;;;;;19.32;100.00;94596.72;5107228;28;20627;-85
2022/06/06 02:49:30;;;;;;;19.90;9.07;;;;;;;19.45;100.00;94601.44;5103091;28;20211;-84
2022/06/06 02:52:04;;;;;;;18.58;8.52;;;;;;;19.50;100.00;94559.22;5109657;28;20282;-83
2022/06/06 02:54:39;;;;;;;14.68;8.40;;;;;;;19.40;100.00;94543.44;5108684;28;20260;-84
2022/06/06 02:57:11;;;;;;;14.20;8.40;;;;;;;19.46;100.00;94552.91;5108450;28;20611;-84
2022/06/06 02:59:46;;;;;;;16.15;8.73;;;;;;;19.50;100.00;94541.53;5105184;28;20196;-83
2022/06/06 03:02:20;;;;;;;18.55;8.40;;;;;;;19.52;100.00;94518.31;5099107;28;20196;-84
2022/06/06 03:04:55;;;;;;;16.55;8.75;;;;;;;19.52;100.00;94542.03;5107308;28;20257;-84
2022/06/06 03:07:37;;;;;;;13.52;8.13;;;;;;;19.68;100.00;94555.91;5097649;28;20198;-83
2022/06/06 03:10:24;;;;;;;19.60;8.57;;;;;;;19.73;100.00;94576.94;5105471;28;20210;-82
2022/06/06 03:13:12;;;;;;;15.38;8.25;;;;;;;19.77;100.00;94588.50;5102951;28;20292;-83
2022/06/06 03:22:05;;;;;;;15.02;7.97;;;;;;;19.85;100.00;94609.03;5100334;28;20318;-83
2022/06/06 03:24:46;;;;;;;18.58;7.93;;;;;;;19.85;100.00;94614.31;5103811;28;20219;-83
2022/06/06 03:27:24;;;;;;;15.50;7.53;;;;;;;19.76;100.00;94619.41;5107894;28;20204;-84
2022/06/06 03:30:06;;;;;;;15.90;7.68;;;;;;;19.77;100.00;94644.69;5104764;28;20242;-83
2022/06/06 03:32:49;;;;;;;16.25;8.43;;;;;;;19.48;100.00;94645.69;5095325;28;20275;-82
2022/06/06 03:35:30;;;;;;;21.60;10.98;;;;;;;19.41;100.00;94640.72;5107979;28;20228;-85
2022/06/06 03:38:09;;;;;;;25.55;10.52;;;;;;;19.47;100.00;94650.19;5105089;28;20208;-76
2022/06/06 03:40:55;;;;;;;16.48;10.00;;;;;;;19.51;100.00;94640.66;5102230;28;20196;-77
2022/06/06 03:43:34;;;;;;;15.32;10.65;;;;;;;19.57;100.00;94638.75;5103957;28;20220;-77
2022/06/06 03:46:18;;;;;;;18.52;9.80;;;;;;;19.58;100.00;94643.78;5108682;28;20745;-78
2022/06/06 03:49:12;;;;;;;21.33;9.40;;;;;;;19.41;100.00;94650.47;5108601;28;20195;-76
2022/06/06 03:51:59;;;;;;;17.17;9.73;;;;;;;19.45;100.00;94652.28;5102154;28;20658;-76
2022/06/06 03:57:26;;;;;;;15.25;9.45;;;;;;;19.64;100.00;94642.69;5099365;28;20212;-77
2022/06/06 04:00:04;;;;;;;19.73;10.20;;;;;;;19.71;100.00;94648.44;5106334;28;20203;-77
2022/06/06 04:02:43;;;;;;;16.67;9.40;;;;;;;19.75;100.00;94638.13;5100653;28;20204;-76
2022/06/06 04:05:16;;;;;;;15.70;9.02;;;;;;;19.79;100.00;94639.94;5106664;28;20195;-78
2022/06/06 04:07:53;;;;;;;21.08;9.98;;;;;;;19.82;100.00;94641.25;5104910;28;20231;-77
2022/06/06 04:10:27;;;;;;;19.48;10.45;;;;;;;19.83;100.00;94637.53;5105069;28;20704;-78
2022/06/06 04:13:22;;;;;;;15.95;9.57;;;;;;;19.82;100.00;94630.69;5101716;28;20650;-77
2022/06/06 04:16:03;;;;;;;15.95;9.80;;;;;;;19.85;100.00;94630.16;5106512;28;20560;-77
2022/06/06 04:18:59;;;;;;;16.55;10.05;;;;;;;19.88;100.00;94626.16;5100943;28;21000;-78
2022/06/06 04:21:40;;;;;;;17.88;9.88;;;;;;;19.94;100.00;94635.63;5102959;28;20685;-77
2022/06/06 04:24:28;;;;;;;16.42;10.20;;;;;;;19.95;100.00;94632.69;5105219;28;20231;-77
2022/06/06 04:27:09;;;;;;;16.73;10.10;;;;;;;19.95;100.00;94630.06;5099491;28;20204;-82
2022/06/06 04:29:56;;;;;;;14.85;10.30;;;;;;;20.07;100.00;94627.84;5101909;28;20197;-80
2022/06/06 04:32:32;;;;;;;19.15;9.93;;;;;;;19.95;100.00;94629.25;5100533;28;20307;-80
2022/06/06 04:35:10;;;;;;;17.30;11.07;;;;;;;20.01;100.00;94631.59;5105684;28;20211;-79
2022/06/06 04:37:49;;;;;;;19.65;10.43;;;;;;;20.07;100.00;94629.69;5109875;28;20270;-79
2022/06/06 04:40:39;;;;;;;19.13;10.98;;;;;;;20.15;100.00;94640.44;5110529;28;21311;-79
2022/06/06 04:43:22;;;;;;;21.08;11.15;;;;;;;20.24;100.00;94628.22;5103654;28;20235;-78
2022/06/06 04:46:00;;;;;;;19.92;10.60;;;;;;;20.29;100.00;94636.09;5107932;28;20204;-79
2022/06/06 04:48:33;;;;;;;17.23;10.63;;;;;;;20.34;100.00;94643.22;5110474;28;20196;-78
2022/06/06 04:51:08;;;;;;;16.98;10.27;;;;;;;20.37;100.00;94642.66;5111427;28;20249;-78
2022/06/06 04:53:48;;;;;;;17.17;10.10;;;;;;;20.45;100.00;94649.97;5107771;28;20196;-79
2022/06/06 04:56:23;;;;;;;16.13;11.18;;;;;;;20.51;100.00;94653.34;5109538;28;20199;-79
2022/06/06 04:59:01;;;;;;;22.33;10.52;;;;;;;20.56;100.00;94648.78;5105516;28;20293;-78
2022/06/06 05:01:31;;;;;;;17.85;10.32;;;;;;;20.53;100.00;94644.06;5108832;28;20279;-78
2022/06/06 05:04:04;;;;;;;19.95;10.98;;;;;;;20.44;100.00;94647.59;5101176;28;20227;-77
2022/06/06 05:07:05;;;;;;;25.98;11.52;;;;;;;20.21;100.00;94643.81;5100430;28;20240;-78
2022/06/06 05:10:06;;;;;;;29.90;11.10;;;;;;;20.08;100.00;94660.31;5104374;28;20231;-77
2022/06/06 05:12:52;;;;;;;18.35;10.57;;;;;;;19.95;100.00;94660.91;5097067;28;20204;-76
2022/06/06 05:15:40;;;;;;;18.70;11.00;;;;;;;19.91;100.00;94665.97;5103605;28;20200;-76
2022/06/06 05:18:28;;;;;;;18.92;11.52;;;;;;;19.89;100.00;94664.66;5106743;28;20820;-77
2022/06/06 05:21:14;;;;;;;22.77;12.52;;;;;;;19.93;100.00;94669.13;5102371;28;20207;-77
2022/06/06 05:24:04;;;;;;;21.33;11.02;;;;;;;19.96;100.00;94671.22;5108310;28;20220;-77
2022/06/06 05:26:58;;;;;;;15.95;11.23;;;;;;;19.98;100.00;94668.28;5108309;28;20203;-76
2022/06/06 05:30:02;;;;;;;25.00;12.52;;;;;;;20.02;100.00;94666.69;5104363;28;20239;-76
2022/06/06 05:33:01;;;;;;;18.98;11.27;;;;;;;20.15;100.00;94653.63;5101769;28;20257;-77
2022/06/06 05:35:52;;;;;;;21.17;10.38;;;;;;;20.27;100.00;94658.56;5107881;28;20228;-78
2022/06/06 05:38:45;;;;;;;17.85;11.55;;;;;;;20.38;100.00;94660.84;5107427;28;20283;-78
2022/06/06 05:41:26;;;;;;;20.58;10.70;;;;;;;20.49;100.00;94664.16;5108585;28;20198;-79
2022/06/06 05:44:12;;;;;;;15.43;11.27;;;;;;;20.62;100.00;94660.88;5098840;28;20215;-79
2022/06/06 05:46:59;;;;;;;21.15;10.85;;;;;;;20.71;100.00;94653.91;5108880;28;20967;-77
2022/06/06 05:49:48;;;;;;;18.13;10.60;;;;;;;20.87;100.00;94667.75;5107075;28;20547;-78
2022/06/06 05:52:41;;;;;;;19.00;10.25;;;;;;;20.97;100.00;94666.84;5102190;28;20211;-79
2022/06/06 05:55:27;;;;;;;20.48;9.93;;;;;;;21.05;100.00;94668.84;5107794;28;20283;-74
2022/06/06 05:58:16;;;;;;;14.80;9.07;;;;;;;21.14;100.00;94669.84;5106781;28;20203;-77
2022/06/06 06:01:02;;;;;;;17.17;8.93;;;;;;;21.28;100.00;94654.84;5103487;28;20215;-77
2022/06/06 06:04:08;;;;;;;21.00;9.77;;;;;;;21.47;100.00;94666.25;5107912;28;20757;-78
2022/06/06 06:06:50;;;;;;;18.92;9.30;;;;;;;21.53;100.00;94670.38;5096465;28;20200;-79
2022/06/06 06:09:40;;;;;;;21.48;9.25;;;;;;;21.62;100.00;94684.53;5103586;28;20255;-78
2022/06/06 06:12:31;;;;;;;17.10;9.77;;;;;;;21.54;100.00;94674.63;5107146;28;20743;-80
2022/06/06 06:15:14;;;;;;;16.88;9.45;;;;;;;21.39;100.00;94665.03;5099223;28;20274;-77
2022/06/06 06:17:48;;;;;;;14.48;9.88;;;;;;;21.48;100.00;94663.31;5105299;28;20208;-77
2022/06/06 06:20:23;;;;;;;19.60;10.88;;;;;;;21.64;100.00;94671.84;5104337;28;20204;-77
2022/06/06 06:22:56;;;;;;;21.73;10.70;;;;;;;21.77;100.00;94668.47;5105316;28;20192;-77
2022/06/06 06:25:31;;;;;;;20.92;11.13;;;;;;;21.80;100.00;94667.88;5104599;28;20246;-77
2022/06/06 06:28:08;;;;;;;15.20;9.82;;;;;;;21.88;100.00;94674.41;5105444;28;20212;-77
2022/06/06 06:30:50;;;;;;;17.13;10.65;;;;;;;22.01;100.00;94682.44;5108198;28;20265;-76
2022/06/06 06:33:36;;;;;;;20.20;10.45;;;;;;;22.09;100.00;94673.03;5109429;28;20200;-76
2022/06/06 06:36:20;;;;;;;21.58;10.80;;;;;;;22.19;100.00;94670.25;5108627;28;20635;-77
2022/06/06 06:39:14;;;;;;;19.33;11.52;;;;;;;22.00;100.00;94667.63;5108967;28;20275;-83
2022/06/06 06:42:00;;;;;;;21.58;12.00;;;;;;;21.99;100.00;94662.63;5111306;28;20196;-86
2022/06/06 06:44:35;;;;;;;23.65;12.40;;;;;;;21.75;100.00;94657.38;5108454;28;20690;-89
2022/06/06 06:47:12;;;;;;;24.67;12.48;;;;;;;21.63;100.00;94640.38;5107578;28;20734;-85
2022/06/06 06:49:47;;;;;;;22.15;12.65;;;;;;;21.58;100.00;94638.59;5105990;28;20199;-88
2022/06/06 06:52:33;;;;;;;22.05;12.60;;;;;;;21.46;100.00;94631.09;5108098;28;20196;-87
2022/06/06 06:55:20;;;;;;;23.17;12.20;;;;;;;21.52;100.00;94625.72;5100419;28;20279;-88
2022/06/06 06:58:03;;;;;;;20.65;11.38;;;;;;;21.43;100.00;94617.63;5102605;28;20662;-89
2022/06/06 07:00:43;;;;;;;22.85;12.75;;;;;;;21.31;100.00;94617.28;5099322;28;20565;-86
2022/06/06 07:09:33;;;;;;;21.38;12.07;;;;;;;21.68;100.00;94613.81;5103470;28;20296;-86
2022/06/06 07:12:23;;;;;;;21.20;11.82;;;;;;;21.75;100.00;94611.63;5107017;28;20208;-90
2022/06/06 07:15:10;;;;;;;19.98;9.85;;;;;;;21.72;100.00;94594.47;5107934;28;20214;-90
2022/06/06 07:17:47;;;;;;;16.13;10.52;;;;;;;21.94;100.00;94599.16;5103637;28;20650;-89
2022/06/06 07:20:21;;;;;;;23.50;10.07;;;;;;;22.08;100.00;94585.97;5107622;28;20204;-88
2022/06/06 07:23:08;;;;;;;27.20;9.77;;;;;;;22.25;100.00;94586.97;5101897;28;20746;-91
2022/06/06 07:25:46;;;;;;;20.10;9.45;;;;;;;22.45;100.00;94594.53;5100457;28;20223;-89
2022/06/06 07:28:18;;;;;;;17.65;9.20;;;;;;;22.53;100.00;94593.88;5095635;28;20201;-89
2022/06/06 07:31:15;;;;;;;19.27;8.75;;;;;;;22.60;100.00;94585.53;5099798;28;20232;-87
2022/06/06 07:34:17;;;;;;;23.45;8.38;;;;;;;22.78;100.00;94597.13;5106951;28;20581;-87
2022/06/06 07:37:07;;;;;;;20.80;9.00;;;;;;;22.79;100.00;94588.91;5105793;28;20259;-91
2022/06/06 07:39:52;;;;;;;15.00;8.00;;;;;;;23.18;100.00;94620.19;5105837;28;20204;-89
2022/06/06 07:42:39;;;;;;;23.33;8.93;;;;;;;23.35;100.00;94608.97;5105205;28;20577;-89
2022/06/06 07:45:23;;;;;;;16.83;7.70;;;;;;;23.49;100.00;94612.41;5104887;28;20690;-87
2022/06/06 07:48:20;;;;;;;20.80;8.85;;;;;;;23.67;100.00;94614.88;5099540;28;20318;-82
2022/06/06 07:51:01;;;;;;;14.57;7.32;;;;;;;23.69;100.00;94618.00;5103345;28;20227;-88
2022/06/06 07:53:42;;;;;;;19.13;7.35;;;;;;;23.57;100.00;94612.47;5105503;28;20196;-74
2022/06/06 07:56:23;;;;;;;18.13;7.75;;;;;;;23.65;100.00;94618.94;5103761;28;20295;-82
2022/06/06 07:59:07;;;;;;;16.35;7.25;;;;;;;23.69;100.00;94609.28;5105066;28;20233;-83
2022/06/06 08:01:54;;;;;;;17.20;7.30;;;;;;;23.84;100.00;94624.84;5105427;28;20720;-82
2022/06/06 08:04:36;;;;;;;19.05;8.77;;;;;;;24.12;100.00;94614.94;5100368;28;20220;-82
2022/06/06 08:07:18;;;;;;;16.38;6.50;;;;;;;24.33;100.00;94621.28;5102415;28;20207;-81
2022/06/06 08:10:04;;;;;;;20.05;5.95;;;;;;;24.56;100.00;94628.13;5104924;28;20232;-83
2022/06/06 08:12:51;;;;;;;17.30;5.65;;;;;;;24.63;99.93;94625.81;5105445;28;20734;-82
2022/06/06 08:15:32;;;;;;;15.45;5.70;;;;;;;24.69;99.31;94637.91;5109827;28;20616;-83
2022/06/06 08:18:36;;;;;;;17.42;5.80;;;;;;;24.74;100.00;94627.13;5110880;28;20219;-83
2022/06/06 08:21:14;;;;;;;22.33;6.38;;;;;;;24.86;100.00;94639.06;5090105;28;20326;-83
2022/06/06 08:23:45;;;;;;;18.67;5.57;;;;;;;25.01;99.68;94641.31;5111317;28;20195;-83
2022/06/06 08:26:19;;;;;;;16.13;5.10;;;;;;;25.10;97.72;94640.28;5101454;28;20279;-84
2022/06/06 08:28:48;;;;;;;15.15;5.43;;;;;;;25.29;96.33;94647.97;5109547;28;20227;-83
2022/06/06 08:31:22;;;;;;;16.05;5.60;;;;;;;25.40;96.41;94643.91;5101518;28;20588;-82
2022/06/06 08:33:53;;;;;;;16.75;5.22;;;;;;;25.41;95.31;94637.50;5097993;28;20391;-82
2022/06/06 08:36:53;;;;;;;20.73;5.70;;;;;;;25.48;93.04;94634.44;5100862;28;20196;-82
2022/06/06 08:39:33;;;;;;;13.27;5.60;;;;;;;25.55;93.67;94629.41;5085106;28;20199;-83
2022/06/06 08:42:21;;;;;;;13.52;5.22;;;;;;;25.61;92.58;94630.81;5093596;28;20667;-82
2022/06/06 08:45:10;;;;;;;14.27;6.05;;;;;;;25.63;93.02;94628.63;5099589;28;20259;-82
2022/06/06 08:48:02;;;;;;;16.75;4.90;;;;;;;25.57;88.91;94651.19;5104115;28;20215;-82
2022/06/06 08:50:53;;;;;;;19.75;5.15;;;;;;;25.51;90.85;94649.78;5098566;28;20240;-81
2022/06/06 08:54:00;;;;;;;15.63;5.30;;;;;;;25.44;89.23;94652.06;5103549;28;20287;-79
2022/06/06 08:57:07;;;;;;;13.07;4.88;;;;;;;25.47;90.37;94654.91;5097340;28;20219;-79
2022/06/06 09:00:09;;;;;;;14.00;4.72;;;;;;;25.39;89.25;94647.69;5062823;28;20210;-79
2022/06/06 09:03:14;;;;;;;13.23;4.63;;;;;;;25.33;87.66;94649.72;5099636;28;20214;-81
2022/06/06 09:06:23;;;;;;;13.20;3.75;;;;;;;25.04;84.08;94670.75;5103323;28;20225;-79
2022/06/06 09:09:31;;;;;;;9.18;3.85;;;;;;;24.66;81.07;94677.59;5102124;28;20690;-82
2022/06/06 09:12:43;;;;;;;6.55;3.58;;;;;;;24.33;82.83;94684.28;5107078;28;20203;-82
2022/06/06 09:15:51;;;;;;;11.27;4.35;;;;;;;23.90;87.22;94668.00;5107503;28;20200;-82
2022/06/06 09:19:00;;;;;;;9.45;4.07;;;;;;;23.51;94.54;94673.91;5106479;28;20208;-84
2022/06/06 09:21:59;;;;;;;11.32;4.28;;;;;;;23.13;99.88;94705.94;5107807;28;20210;-82
2022/06/06 09:25:09;;;;;;;11.85;4.22;;;;;;;22.94;100.00;94699.94;5105716;28;20226;-81
2022/06/06 09:28:18;;;;;;;14.40;5.18;;;;;;;22.59;100.00;94704.00;5103647;28;20207;-81
2022/06/06 09:31:22;;;;;;;10.85;5.05;;;;;;;22.37;100.00;94703.03;5105162;28;20230;-81
2022/06/06 09:34:24;;;;;;;11.25;5.00;;;;;;;22.38;100.00;94696.66;5100308;28;20577;-76
2022/06/06 09:37:07;;;;;;;10.38;5.35;;;;;;;22.40;100.00;94703.25;5107568;28;20522;-78
2022/06/06 09:39:56;;;;;;;16.42;4.88;;;;;;;22.30;100.00;94713.22;5105404;28;20277;-77
2022/06/06 09:42:53;;;;;;;11.32;5.75;;;;;;;22.04;100.00;94713.63;5107160;28;20227;-80
2022/06/06 09:45:35;;;;;;;9.02;5.38;;;;;;;21.56;100.00;94698.16;5106941;28;20212;-85
2022/06/06 09:48:57;;;;;;;9.23;4.95;;;;;;;21.66;100.00;94703.28;5100487;28;20211;-84
2022/06/06 09:51:58;;;;;;;10.23;5.10;;;;;;;21.92;100.00;94694.75;5108185;28;20727;-84
2022/06/06 10:01:50;;;;;;;9.35;5.00;;;;;;;22.90;100.00;94685.72;5078526;28;20200;-81
2022/06/06 10:04:59;;;;;;;10.35;5.10;;;;;;;23.03;100.00;94694.75;5065857;28;20639;-81
2022/06/06 10:08:12;;;;;;;7.72;4.40;;;;;;;23.18;100.00;94699.75;5105874;28;20283;-81
2022/06/06 10:11:10;;;;;;;11.23;4.70;;;;;;;23.27;100.00;94694.53;5105118;28;20593;-80
2022/06/06 10:14:01;;;;;;;14.05;4.38;;;;;;;23.47;100.00;94683.53;5071083;28;20261;-85
2022/06/06 10:16:51;;;;;;;10.60;4.80;;;;;;;23.66;100.00;94700.91;5108032;28;20276;-87
2022/06/06 10:19:50;;;;;;;10.60;4.30;;;;;;;23.62;100.00;94718.50;5107268;28;20204;-86
2022/06/06 10:22:52;;;;;;;11.65;4.88;;;;;;;23.51;99.81;94737.59;5106751;28;20199;-85
2022/06/06 10:25:43;;;;;;;19.58;7.50;;;;;;;23.34;100.00;94740.81;5082700;28;20287;-88
2022/06/06 10:28:32;;;;;;;23.85;6.80;;;;;;;23.09;100.00;94722.72;5103239;28;20734;-86
2022/06/06 10:31:17;;;;;;;18.10;7.07;;;;;;;22.89;100.00;94715.94;5105900;28;20682;-85
2022/06/06 10:34:15;;;;;;;17.00;6.63;;;;;;;22.76;100.00;94729.97;5102263;28;20705;-85
2022/06/06 10:37:00;;;;;;;15.90;6.30;;;;;;;22.52;100.00;94721.34;5104178;28;20636;-83
2022/06/06 10:39:59;;;;;;;11.20;5.85;;;;;;;22.36;100.00;94734.06;5101021;28;20230;-86
2022/06/06 10:43:09;;;;;;;12.25;6.10;;;;;;;22.28;100.00;94716.16;5094376;28;20196;-89
2022/06/06 10:45:46;;;;;;;14.40;6.50;;;;;;;22.28;100.00;94708.22;5047964;28;20311;-88
2022/06/06 10:48:52;;;;;;;15.70;7.28;;;;;;;22.31;100.00;94683.78;5100824;28;20613;-88
2022/06/06 10:51:53;;;;;;;21.95;10.25;;;;;;;22.31;100.00;94686.44;5095719;28;20201;-87
2022/06/06 10:54:54;;;;;;;13.57;8.13;;;;;;;22.37;100.00;94700.38;5101274;28;20226;-85
2022/06/06 10:58:10;;;;;;;10.55;5.90;;;;;;;22.32;100.00;94716.38;5105476;28;20303;-87
2022/06/06 11:01:00;;;;;;;11.77;5.75;;;;;;;22.29;100.00;94703.69;5102227;28;20192;-85
2022/06/06 11:04:01;;;;;;;9.77;6.18;;;;;;;22.29;100.00;94699.19;5098958;28;20197;-85
2022/06/06 11:07:05;;;;;;;14.13;6.30;;;;;;;22.26;100.00;94686.53;5099186;28;20763;-87
2022/06/06 11:09:59;;;;;;;12.32;6.20;;;;;;;22.23;100.00;94681.81;5095964;28;20235;-86
2022/06/06 11:13:10;;;;;;;11.18;6.05;;;;;;;22.26;100.00;94686.53;5079229;28;20197;-83
2022/06/06 11:15:42;;;;;;;9.90;5.57;;;;;;;22.25;100.00;94690.25;5105624;28;20275;-87
2022/06/06 11:19:06;;;;;;;12.10;6.15;;;;;;;22.22;100.00;94688.19;5106145;28;20625;-88
2022/06/06 11:22:10;;;;;;;12.88;6.03;;;;;;;22.25;100.00;94702.72;5013813;28;20235;-86
2022/06/06 11:24:51;;;;;;;9.43;6.15;;;;;;;22.19;100.00;94712.63;5006648;28;20222;-88
2022/06/06 11:27:46;;;;;;;11.65;5.72;;;;;;;22.14;100.00;94702.06;5088087;28;20196;-86
2022/06/06 11:30:48;;;;;;;8.63;6.68;;;;;;;22.10;100.00;94690.50;5103752;28;20650;-87
2022/06/06 11:33:53;;;;;;;11.85;6.60;;;;;;;22.03;100.00;94668.91;5100666;28;20234;-85
2022/06/06 11:37:00;;;;;;;13.52;6.82;;;;;;;22.09;100.00;94677.53;5109530;28;20226;-86
2022/06/06 11:40:10;;;;;;;11.55;5.80;;;;;;;22.08;100.00;94692.63;5093659;28;20709;-87
2022/06/06 11:43:27;;;;;;;7.57;5.88;;;;;;;22.02;100.00;94667.31;5093506;28;20212;-86
2022/06/06 11:46:33;;;;;;;9.25;5.30;;;;;;;22.10;100.00;94655.28;5105278;28;20686;-85
2022/06/06 11:49:42;;;;;;;8.05;5.10;;;;;;;22.26;100.00;94668.00;5104373;28;20207;-88
2022/06/06 11:52:56;;;;;;;10.30;5.72;;;;;;;22.36;100.00;94673.13;5061277;28;20276;-88
2022/06/06 11:55:42;;;;;;;7.75;5.45;;;;;;;22.40;100.00;94673.31;5040224;28;20206;-86
2022/06/06 11:58:43;;;;;;;8.00;5.45;;;;;;;22.34;100.00;94677.13;5105598;28;20308;-88
2022/06/06 12:01:43;;;;;;;10.38;6.00;;;;;;;22.14;100.00;94675.59;5100203;28;20207;-89
2022/06/06 12:05:04;;;;;;;7.93;5.68;;;;;;;22.20;100.00;94695.63;5094765;28;20276;-86
2022/06/06 12:07:58;;;;;;;6.82;5.65;;;;;;;22.02;100.00;94680.53;5073400;28;20287;-87
2022/06/06 12:10:33;;;;;;;8.65;6.15;;;;;;;22.11;100.00;94686.00;5062155;28;20197;-86
2022/06/06 12:13:35;;;;;;;9.65;6.22;;;;;;;22.08;100.00;94668.81;5068476;28;20578;-86
2022/06/06 12:16:27;;;;;;;10.05;6.60;;;;;;;22.03;100.00;94655.66;5063919;28;20209;-86
2022/06/06 12:19:24;;;;;;;9.95;6.22;;;;;;;21.98;100.00;94650.44;5068837;28;20197;-86
2022/06/06 12:22:10;;;;;;;7.97;5.95;;;;;;;21.86;100.00;94618.31;5032899;28;20213;-90
2022/06/06 12:25:11;;;;;;;8.63;5.35;;;;;;;21.91;100.00;94637.56;5068919;28;20682;-89
2022/06/06 12:27:58;;;;;;;11.65;6.10;;;;;;;21.73;100.00;94621.72;5059151;28;20300;-88
2022/06/06 12:30:52;;;;;;;9.43;6.07;;;;;;;21.74;100.00;94634.63;5068152;28;20197;-89
2022/06/06 12:33:30;;;;;;;9.75;6.10;;;;;;;21.84;100.00;94674.19;5064667;28;20561;-87
2022/06/06 12:36:04;;;;;;;11.32;6.35;;;;;;;21.86;100.00;94665.94;5068819;28;20255;-90
2022/06/06 12:38:48;;;;;;;10.10;6.40;;;;;;;21.97;100.00;94680.63;5060290;28;20202;-89
2022/06/06 12:41:43;;;;;;;11.00;6.13;;;;;;;21.95;100.00;94685.44;5071000;28;20644;-88
2022/06/06 12:44:42;;;;;;;10.40;6.35;;;;;;;22.05;100.00;94695.84;5067864;28;20285;-90
2022/06/06 12:47:30;;;;;;;9.63;6.30;;;;;;;22.14;100.00;94674.81;5067134;28;20256;-91
2022/06/06 12:50:19;;;;;;;13.25;7.47;;;;;;;22.28;100.00;94667.72;5068408;28;20205;-90
2022/06/06 12:53:20;;;;;;;10.27;6.53;;;;;;;22.36;100.00;94653.81;5070204;28;20228;-88
2022/06/06 12:58:46;;;;;;;11.35;6.40;;;;;;;22.58;100.00;94633.53;5066563;28;20201;-88
2022/06/06 13:01:48;;;;;;;10.05;5.90;;;;;;;22.76;100.00;94639.84;5072260;28;20661;-88
2022/06/06 13:04:42;;;;;;;12.32;6.32;;;;;;;22.87;100.00;94632.47;5068177;28;20205;-89
2022/06/06 13:07:29;;;;;;;10.57;5.90;;;;;;;22.84;100.00;94628.56;5073574;28;20225;-89
2022/06/06 13:10:18;;;;;;;8.85;6.32;;;;;;;22.81;100.00;94615.09;5108294;28;20511;-86